createdAt,value
2023-08-09T00:00:08.857Z,82.77
2023-08-09T00:02:36.833Z,82.76
2023-08-09T00:05:06.114Z,82.25
2023-08-09T00:07:35.889Z,82.47
2023-08-09T00:10:05.624Z,82.92
2023-08-09T00:12:33.678Z,82.88
2023-08-09T00:15:01.418Z,82.76
2023-08-09T00:17:29.297Z,83.05
2023-08-09T00:19:57.173Z,83.34
2023-08-09T00:22:25.895Z,82.99
2023-08-09T00:24:53.713Z,83.03
2023-08-09T00:27:22.821Z,82.69
2023-08-09T00:29:50.576Z,83.23
2023-08-09T00:32:18.618Z,82.99
2023-08-09T00:34:48.198Z,83.76
2023-08-09T00:37:16.177Z,83.91
2023-08-09T00:39:44.142Z,83.91
2023-08-09T00:42:11.995Z,84.18
2023-08-09T00:44:41.257Z,84.16
2023-08-09T00:47:10.795Z,83.98
2023-08-09T00:49:39.811Z,84.02
2023-08-09T00:52:07.803Z,83.76
2023-08-09T00:54:35.706Z,84.25
2023-08-09T00:57:03.893Z,84.06
2023-08-09T00:59:31.808Z,83.76
2023-08-09T01:02:01.053Z,83.98
2023-08-09T01:04:29.158Z,84.04
2023-08-09T01:07:01.003Z,84.37
2023-08-09T01:09:34.332Z,84.47
2023-08-09T01:12:05.546Z,83.93
2023-08-09T01:14:33.537Z,84.40
2023-08-09T01:17:03.590Z,84.32
2023-08-09T01:19:38.529Z,84.44
2023-08-09T01:22:09.100Z,84.24
2023-08-09T01:24:38.405Z,84.64
2023-08-09T01:27:06.290Z,84.58
2023-08-09T01:29:34.264Z,84.29
2023-08-09T01:32:02.128Z,84.16
2023-08-09T01:34:30.094Z,84.75
2023-08-09T01:37:01.232Z,84.50
2023-08-09T01:39:33.872Z,84.57
2023-08-09T01:42:03.169Z,84.78
2023-08-09T01:44:31.630Z,84.44
2023-08-09T01:47:00.444Z,84.69
2023-08-09T01:49:28.572Z,84.50
2023-08-09T01:51:57.189Z,84.49
2023-08-09T01:54:25.383Z,84.88
2023-08-09T01:56:55.567Z,84.43
2023-08-09T01:59:25.156Z,84.25
2023-08-09T02:01:52.920Z,84.77
2023-08-09T02:04:22.390Z,84.51
2023-08-09T02:06:50.104Z,83.77
2023-08-09T02:09:18.315Z,83.89
2023-08-09T02:11:46.256Z,84.20
2023-08-09T02:14:14.006Z,84.15
2023-08-09T02:16:43.153Z,84.21
2023-08-09T02:19:12.815Z,84.24
2023-08-09T02:21:41.933Z,84.52
2023-08-09T02:24:10.382Z,84.64
2023-08-09T02:26:40.156Z,84.67
2023-08-09T02:29:08.121Z,84.39
2023-08-09T02:31:36.331Z,84.66
2023-08-09T02:34:05.808Z,84.18
2023-08-09T02:36:37.399Z,83.98
2023-08-09T02:39:09.410Z,83.92
2023-08-09T02:41:39.381Z,84.50
2023-08-09T02:44:07.871Z,83.79
2023-08-09T02:46:35.888Z,84.44
2023-08-09T02:49:05.309Z,84.06
2023-08-09T02:51:35.517Z,84.04
2023-08-09T02:54:04.135Z,84.35
2023-08-09T02:56:32.855Z,84.13
2023-08-09T02:59:02.197Z,84.07
2023-08-09T03:01:32.408Z,84.84
2023-08-09T03:04:00.248Z,85.00
2023-08-09T03:06:29.396Z,84.87
2023-08-09T03:09:00.094Z,84.95
2023-08-09T03:11:28.031Z,84.85
2023-08-09T03:13:55.922Z,85.00
2023-08-09T03:16:24.159Z,84.65
2023-08-09T03:18:52.090Z,85.12
2023-08-09T03:21:20.009Z,84.48
2023-08-09T03:23:49.188Z,84.40
2023-08-09T03:26:16.943Z,84.63
2023-08-09T03:28:45.282Z,84.81
2023-08-09T03:31:13.088Z,84.58
2023-08-09T03:33:40.823Z,84.65
2023-08-09T03:36:08.742Z,85.25
2023-08-09T03:38:36.511Z,85.14
2023-08-09T03:41:05.571Z,84.87
2023-08-09T03:43:33.349Z,84.50
2023-08-09T03:46:01.616Z,84.70
2023-08-09T03:48:29.367Z,84.26
2023-08-09T03:50:57.364Z,84.78
2023-08-09T03:53:25.128Z,85.07
2023-08-09T03:55:52.941Z,84.37
2023-08-09T03:58:22.838Z,84.58
2023-08-09T04:00:50.644Z,84.39
2023-08-09T04:03:18.712Z,84.50
2023-08-09T04:05:46.587Z,84.76
2023-08-09T04:08:14.366Z,84.17
2023-08-09T04:10:42.096Z,84.67
2023-08-09T04:13:09.853Z,84.77
2023-08-09T04:15:39.011Z,84.72
2023-08-09T04:18:06.915Z,84.19
2023-08-09T04:20:34.635Z,84.75
2023-08-09T04:23:02.446Z,84.29
2023-08-09T04:25:30.215Z,84.44
2023-08-09T04:27:58.163Z,84.58
2023-08-09T04:30:26.101Z,83.90
2023-08-09T04:32:55.698Z,84.32
2023-08-09T04:35:24.832Z,84.46
2023-08-09T04:37:52.720Z,84.58
2023-08-09T04:40:20.672Z,84.44
2023-08-09T04:42:51.065Z,83.98
2023-08-09T04:45:19.079Z,83.89
2023-08-09T04:47:48.367Z,84.15
2023-08-09T04:50:17.679Z,84.30
2023-08-09T04:52:45.714Z,84.37
2023-08-09T04:55:13.639Z,84.48
2023-08-09T04:57:41.664Z,85.02
2023-08-09T05:00:11.276Z,85.04
2023-08-09T05:02:39.714Z,85.16
2023-08-09T05:05:08.435Z,84.67
2023-08-09T05:07:38.718Z,85.24
2023-08-09T05:10:08.493Z,85.11
2023-08-09T05:12:37.277Z,84.76
2023-08-09T05:15:05.800Z,85.39
2023-08-09T05:17:33.548Z,85.14
2023-08-09T05:20:01.355Z,85.18
2023-08-09T05:22:29.147Z,84.61
2023-08-09T05:24:58.577Z,84.66
2023-08-09T05:27:26.331Z,85.35
2023-08-09T05:29:54.118Z,84.38
2023-08-09T05:32:22.972Z,84.59
2023-08-09T05:34:50.875Z,84.62
2023-08-09T05:37:18.664Z,84.45
2023-08-09T05:39:47.973Z,84.28
2023-08-09T05:42:17.415Z,84.37
2023-08-09T05:44:45.656Z,84.61
2023-08-09T05:47:13.386Z,84.81
2023-08-09T05:49:41.149Z,84.85
2023-08-09T05:52:08.915Z,84.95
2023-08-09T05:54:36.728Z,84.75
2023-08-09T05:57:05.035Z,84.90
2023-08-09T05:59:34.164Z,84.69
2023-08-09T06:02:03.342Z,84.60
2023-08-09T06:04:31.168Z,84.44
2023-08-09T06:06:58.928Z,83.83
2023-08-09T06:09:26.685Z,84.49
2023-08-09T06:11:54.410Z,84.30
2023-08-09T06:14:22.134Z,84.12
2023-08-09T06:16:51.274Z,84.58
2023-08-09T06:19:19.417Z,84.23
2023-08-09T06:21:47.274Z,84.32
2023-08-09T06:24:15.013Z,84.27
2023-08-09T06:26:42.885Z,84.57
2023-08-09T06:29:10.713Z,84.79
2023-08-09T06:31:38.493Z,84.64
2023-08-09T06:34:07.976Z,84.03
2023-08-09T06:36:35.718Z,84.52
2023-08-09T06:39:04.095Z,83.94
2023-08-09T06:41:31.825Z,84.37
2023-08-09T06:43:59.530Z,84.27
2023-08-09T06:46:27.630Z,84.06
2023-08-09T06:48:55.368Z,83.69
2023-08-09T06:51:24.533Z,83.23
2023-08-09T06:53:52.391Z,83.32
2023-08-09T06:56:20.143Z,83.34
2023-08-09T06:58:47.845Z,83.05
2023-08-09T07:01:15.589Z,82.54
2023-08-09T07:03:43.345Z,82.02
2023-08-09T07:06:11.104Z,82.56
2023-08-09T07:08:40.253Z,82.39
2023-08-09T07:11:07.984Z,82.09
2023-08-09T07:13:38.303Z,82.67
2023-08-09T07:16:06.530Z,81.88
2023-08-09T07:18:34.300Z,82.09
2023-08-09T07:21:02.007Z,82.77
2023-08-09T07:23:47.203Z,81.97
2023-08-09T07:26:18.822Z,82.17
2023-08-09T07:28:46.562Z,81.86
2023-08-09T07:31:26.216Z,82.45
2023-08-09T07:33:54.293Z,82.20
2023-08-09T07:36:22.073Z,81.70
2023-08-09T07:38:50.014Z,82.07
2023-08-09T07:41:19.089Z,81.86
2023-08-09T07:43:46.872Z,81.88
2023-08-09T07:46:14.806Z,81.46
2023-08-09T07:48:42.562Z,81.48
2023-08-09T07:51:13.224Z,80.83
2023-08-09T07:53:42.270Z,81.11
2023-08-09T07:56:11.801Z,80.10
2023-08-09T07:58:40.979Z,80.23
2023-08-09T08:01:09.257Z,80.61
2023-08-09T08:03:37.132Z,80.91
2023-08-09T08:06:05.280Z,80.01
2023-08-09T08:08:33.030Z,79.83
2023-08-09T08:11:01.179Z,78.58
2023-08-09T08:13:28.978Z,78.79
2023-08-09T08:16:00.602Z,79.03
2023-08-09T08:18:28.811Z,78.94
2023-08-09T08:20:56.839Z,78.02
2023-08-09T08:23:24.576Z,78.45
2023-08-09T08:25:52.382Z,79.11
2023-08-09T08:28:20.080Z,78.15
2023-08-09T08:30:48.849Z,78.25
2023-08-09T08:33:18.778Z,77.56
2023-08-09T08:38:19.210Z,73.64
2023-08-09T08:40:47.191Z,76.93
2023-08-09T08:43:14.997Z,76.54
2023-08-09T08:45:43.167Z,76.75
2023-08-09T08:48:12.155Z,76.93
2023-08-09T08:50:43.118Z,77.45
2023-08-09T08:53:12.222Z,76.52
2023-08-09T08:55:41.109Z,76.45
2023-08-09T08:58:10.094Z,75.99
2023-08-09T09:00:39.792Z,75.98
2023-08-09T09:03:07.611Z,76.59
2023-08-09T09:05:37.842Z,75.60
2023-08-09T09:08:07.964Z,75.27
2023-08-09T09:10:36.001Z,75.15
2023-08-09T09:13:03.824Z,76.72
2023-08-09T09:15:31.656Z,76.23
2023-08-09T09:18:00.256Z,75.30
2023-08-09T09:20:31.102Z,74.25
2023-08-09T09:22:59.648Z,74.44
2023-08-09T09:25:28.793Z,74.85
2023-08-09T09:27:58.812Z,74.13
2023-08-09T09:30:30.688Z,74.07
2023-08-09T09:33:00.246Z,74.00
2023-08-09T09:35:29.539Z,73.23
2023-08-09T09:38:00.206Z,72.22
2023-08-09T09:40:35.321Z,71.70
2023-08-09T09:43:05.420Z,70.91
2023-08-09T09:45:33.878Z,71.02
2023-08-09T09:48:03.248Z,70.65
2023-08-09T09:50:32.767Z,71.86
2023-08-09T09:53:03.584Z,71.38
2023-08-09T09:55:35.717Z,70.71
2023-08-09T09:58:03.446Z,69.88
2023-08-09T10:00:33.408Z,69.79
2023-08-09T10:03:02.674Z,69.26
2023-08-09T10:05:36.479Z,68.40
2023-08-09T10:08:12.475Z,68.14
2023-08-09T10:10:44.627Z,68.24
2023-08-09T10:13:16.144Z,68.21
2023-08-09T10:15:48.439Z,68.16
2023-08-09T10:18:18.698Z,67.49
2023-08-09T10:20:48.648Z,67.48
2023-08-09T10:23:23.612Z,66.12
2023-08-09T10:25:53.593Z,66.21
2023-08-09T10:28:21.776Z,67.08
2023-08-09T10:30:51.483Z,66.51
2023-08-09T10:33:21.143Z,65.83
2023-08-09T10:35:52.421Z,66.39
2023-08-09T10:38:23.401Z,65.55
2023-08-09T10:40:55.420Z,65.01
2023-08-09T10:43:24.563Z,64.87
2023-08-09T10:45:54.807Z,64.50
2023-08-09T10:48:24.314Z,65.01
2023-08-09T10:51:19.861Z,63.42
2023-08-09T10:53:59.687Z,63.71
2023-08-09T10:56:36.036Z,62.15
2023-08-09T10:59:08.418Z,61.42
2023-08-09T11:01:37.118Z,63.82
2023-08-09T11:04:10.743Z,63.72
2023-08-09T11:06:39.946Z,64.09
2023-08-09T11:09:12.288Z,63.63
2023-08-09T11:11:42.380Z,63.38
2023-08-09T11:14:10.807Z,63.20
2023-08-09T11:16:38.853Z,63.34
2023-08-09T11:19:11.383Z,63.05
2023-08-09T11:21:49.668Z,63.16
2023-08-09T11:24:18.477Z,63.07
2023-08-09T11:26:49.794Z,62.75
2023-08-09T11:29:18.928Z,62.79
2023-08-09T11:31:47.826Z,63.78
2023-08-09T11:34:17.494Z,62.26
2023-08-09T11:36:46.230Z,62.54
2023-08-09T11:39:14.891Z,62.78
2023-08-09T11:41:44.489Z,62.52
2023-08-09T11:44:16.420Z,62.18
2023-08-09T11:46:47.064Z,61.60
2023-08-09T11:49:15.168Z,61.91
2023-08-09T11:51:42.887Z,61.95
2023-08-09T11:54:10.981Z,61.67
2023-08-09T11:56:39.559Z,61.04
2023-08-09T11:59:10.047Z,61.36
2023-08-09T12:01:41.296Z,61.29
2023-08-09T12:04:14.264Z,61.29
2023-08-09T12:06:45.225Z,61.98
2023-08-09T12:09:45.346Z,57.18
2023-08-09T12:12:18.245Z,61.00
2023-08-09T12:14:47.457Z,61.10
2023-08-09T12:17:24.428Z,60.13
2023-08-09T12:19:52.700Z,60.47
2023-08-09T12:22:20.700Z,60.74
2023-08-09T12:24:48.927Z,60.28
2023-08-09T12:27:18.823Z,60.34
2023-08-09T12:29:46.638Z,59.06
2023-08-09T12:32:14.598Z,59.36
2023-08-09T12:34:43.862Z,58.55
2023-08-09T12:37:12.293Z,59.22
2023-08-09T12:39:40.072Z,58.57
2023-08-09T12:42:07.914Z,57.90
2023-08-09T12:44:35.680Z,58.55
2023-08-09T12:47:03.539Z,58.64
2023-08-09T12:49:31.405Z,58.53
2023-08-09T12:52:00.607Z,57.99
2023-08-09T12:54:28.645Z,59.12
2023-08-09T12:56:56.985Z,59.01
2023-08-09T12:59:24.828Z,59.26
2023-08-09T13:01:52.617Z,58.53
2023-08-09T13:04:25.057Z,58.27
2023-08-09T13:06:53.222Z,58.89
2023-08-09T13:09:22.603Z,58.68
2023-08-09T13:11:50.678Z,58.65
2023-08-09T13:14:18.499Z,58.82
2023-08-09T13:16:49.016Z,58.71
2023-08-09T13:19:16.766Z,58.84
2023-08-09T13:21:44.574Z,58.31
2023-08-09T13:24:12.401Z,58.80
2023-08-09T13:26:41.481Z,59.17
2023-08-09T13:29:09.211Z,59.39
2023-08-09T13:31:36.997Z,58.72
2023-08-09T13:34:05.171Z,58.74
2023-08-09T13:36:32.919Z,57.66
2023-08-09T13:39:00.667Z,57.62
2023-08-09T13:41:28.393Z,57.40
2023-08-09T13:43:57.480Z,58.03
2023-08-09T13:46:25.220Z,57.92
2023-08-09T13:48:53.042Z,58.27
2023-08-09T13:51:20.817Z,57.35
2023-08-09T13:53:48.553Z,58.01
2023-08-09T13:56:17.994Z,58.21
2023-08-09T13:58:45.754Z,58.19
2023-08-09T14:01:17.981Z,58.39
2023-08-09T14:03:45.768Z,58.12
2023-08-09T14:06:13.478Z,57.94
2023-08-09T14:08:41.226Z,57.84
2023-08-09T14:11:09.004Z,58.05
2023-08-09T14:13:36.721Z,58.04
2023-08-09T14:16:04.761Z,58.24
2023-08-09T14:18:34.455Z,57.82
2023-08-09T14:21:02.283Z,57.85
2023-08-09T14:23:30.529Z,57.56
2023-08-09T14:25:58.283Z,57.84
2023-08-09T14:28:26.086Z,57.83
2023-08-09T14:30:54.025Z,57.08
2023-08-09T14:33:21.780Z,56.68
2023-08-09T14:35:50.989Z,56.89
2023-08-09T14:38:19.137Z,56.25
2023-08-09T14:40:47.972Z,56.29
2023-08-09T14:43:18.317Z,55.83
2023-08-09T14:45:46.415Z,55.47
2023-08-09T14:48:14.202Z,55.33
2023-08-09T14:50:44.207Z,55.54
2023-08-09T14:53:13.747Z,55.76
2023-08-09T14:55:43.372Z,55.69
2023-08-09T14:58:11.666Z,55.64
2023-08-09T15:00:39.591Z,55.60
2023-08-09T15:03:10.223Z,56.07
2023-08-09T15:05:38.009Z,56.35
2023-08-09T15:08:08.506Z,56.29
2023-08-09T15:10:38.597Z,56.23
2023-08-09T15:13:09.507Z,56.69
2023-08-09T15:15:37.301Z,56.50
2023-08-09T15:18:05.498Z,55.99
2023-08-09T15:20:33.537Z,55.25
2023-08-09T15:23:01.303Z,55.26
2023-08-09T15:25:29.592Z,56.00
2023-08-09T15:28:01.225Z,55.93
2023-08-09T15:30:30.099Z,56.65
2023-08-09T15:32:58.086Z,56.73
2023-08-09T15:35:26.252Z,56.67
2023-08-09T15:37:54.025Z,56.09
2023-08-09T15:40:23.412Z,56.70
2023-08-09T15:42:51.177Z,57.03
2023-08-09T15:45:20.377Z,56.24
2023-08-09T15:47:48.237Z,56.95
2023-08-09T15:50:16.336Z,57.41
2023-08-09T15:52:44.055Z,57.49
2023-08-09T15:55:11.916Z,57.60
2023-08-09T15:57:39.742Z,57.59
2023-08-09T16:00:10.611Z,57.97
2023-08-09T16:02:40.260Z,57.28
2023-08-09T16:05:08.835Z,57.77
2023-08-09T16:07:36.591Z,57.06
2023-08-09T16:10:05.440Z,57.43
2023-08-09T16:12:34.352Z,56.63
2023-08-09T16:15:02.095Z,56.93
2023-08-09T16:17:29.933Z,56.60
2023-08-09T16:19:59.573Z,56.78
2023-08-09T16:22:27.626Z,57.18
2023-08-09T16:24:55.382Z,56.77
2023-08-09T16:27:25.251Z,56.52
2023-08-09T16:29:53.087Z,56.70
2023-08-09T16:32:20.961Z,57.21
2023-08-09T16:34:48.689Z,57.12
2023-08-09T16:37:17.802Z,56.92
2023-08-09T16:39:45.970Z,57.22
2023-08-09T16:42:14.004Z,56.86
2023-08-09T16:44:41.743Z,57.48
2023-08-09T16:47:09.458Z,57.37
2023-08-09T16:49:37.414Z,57.17
2023-08-09T16:52:09.243Z,57.48
2023-08-09T16:54:38.420Z,56.91
2023-08-09T16:57:06.996Z,57.26
2023-08-09T16:59:35.306Z,56.87
2023-08-09T17:02:03.338Z,56.42
2023-08-09T17:04:31.373Z,56.57
2023-08-09T17:06:59.203Z,55.88
2023-08-09T17:09:26.958Z,56.04
2023-08-09T17:11:56.059Z,56.04
2023-08-09T17:14:23.847Z,56.22
2023-08-09T17:16:52.746Z,55.97
2023-08-09T17:19:24.239Z,55.80
2023-08-09T17:21:52.033Z,56.18
2023-08-09T17:24:19.837Z,56.03
2023-08-09T17:26:47.618Z,55.90
2023-08-09T17:29:17.135Z,56.36
2023-08-09T17:31:46.212Z,56.81
2023-08-09T17:34:14.530Z,56.77
2023-08-09T17:36:42.490Z,56.63
2023-08-09T17:39:10.559Z,56.90
2023-08-09T17:41:38.314Z,57.15
2023-08-09T17:44:07.137Z,57.60
2023-08-09T17:46:36.909Z,57.38
2023-08-09T17:49:05.727Z,57.76
2023-08-09T17:51:33.561Z,57.46
2023-08-09T17:54:01.553Z,58.01
2023-08-09T17:56:30.454Z,58.38
2023-08-09T17:58:58.217Z,58.40
2023-08-09T18:01:26.087Z,58.16
2023-08-09T18:03:55.332Z,57.92
2023-08-09T18:06:24.844Z,58.05
2023-08-09T18:08:52.741Z,58.16
2023-08-09T18:11:21.453Z,58.09
2023-08-09T18:13:52.093Z,58.27
2023-08-09T18:16:19.927Z,57.94
2023-08-09T18:18:48.992Z,58.71
2023-08-09T18:21:18.127Z,58.78
2023-08-09T18:23:45.912Z,58.55
2023-08-09T18:26:13.688Z,59.16
2023-08-09T18:28:41.591Z,58.83
2023-08-09T18:31:09.356Z,59.20
2023-08-09T18:33:37.122Z,59.62
2023-08-09T18:36:05.194Z,59.24
2023-08-09T18:38:35.278Z,59.65
2023-08-09T18:41:03.972Z,59.72
2023-08-09T18:43:31.856Z,60.04
2023-08-09T18:46:00.032Z,59.86
2023-08-09T18:48:28.001Z,60.54
2023-08-09T18:50:55.996Z,60.62
2023-08-09T18:53:23.778Z,60.81
2023-08-09T18:55:52.942Z,60.99
2023-08-09T18:58:22.111Z,61.29
2023-08-09T19:00:50.491Z,61.39
2023-08-09T19:03:18.643Z,60.89
2023-08-09T19:05:47.566Z,61.07
2023-08-09T19:08:15.436Z,61.36
2023-08-09T19:10:43.206Z,61.22
2023-08-09T19:13:12.634Z,61.43
2023-08-09T19:15:40.692Z,61.72
2023-08-09T19:18:08.676Z,61.67
2023-08-09T19:20:36.527Z,62.31
2023-08-09T19:23:05.504Z,62.46
2023-08-09T19:25:33.650Z,62.25
2023-08-09T19:28:01.652Z,62.09
2023-08-09T19:30:30.811Z,62.83
2023-08-09T19:32:58.724Z,62.26
2023-08-09T19:35:26.615Z,62.62
2023-08-09T19:37:56.394Z,62.75
2023-08-09T19:40:26.039Z,63.09
2023-08-09T19:42:53.882Z,62.70
2023-08-09T19:45:22.565Z,63.05
2023-08-09T19:47:54.800Z,63.47
2023-08-09T19:50:22.951Z,63.70
2023-08-09T19:52:50.775Z,63.23
2023-08-09T19:55:20.368Z,63.45
2023-08-09T19:57:48.137Z,63.36
2023-08-09T20:00:19.124Z,64.00
2023-08-09T20:02:49.655Z,63.83
2023-08-09T20:05:18.890Z,64.45
2023-08-09T20:07:47.459Z,64.25
2023-08-09T20:10:15.297Z,64.59
2023-08-09T20:12:43.054Z,64.48
2023-08-09T20:15:12.573Z,64.47
2023-08-09T20:17:40.438Z,64.28
2023-08-09T20:20:10.780Z,64.39
2023-08-09T20:22:40.533Z,65.38
2023-08-09T20:25:08.897Z,64.77
2023-08-09T20:27:36.898Z,64.91
2023-08-09T20:30:06.070Z,65.12
2023-08-09T20:32:34.218Z,65.40
2023-08-09T20:35:02.355Z,65.74
2023-08-09T20:37:30.136Z,65.89
2023-08-09T20:39:59.245Z,65.78
2023-08-09T20:42:27.713Z,65.87
2023-08-09T20:44:55.473Z,66.18
2023-08-09T20:47:23.567Z,65.94
2023-08-09T20:49:51.389Z,66.18
2023-08-09T20:52:19.163Z,66.51
2023-08-09T20:54:46.883Z,67.00
2023-08-09T20:57:16.132Z,67.08
2023-08-09T20:59:43.996Z,67.66
2023-08-09T21:02:12.018Z,67.37
2023-08-09T21:04:39.797Z,67.64
2023-08-09T21:07:07.623Z,68.34
2023-08-09T21:09:35.856Z,68.14
2023-08-09T21:12:04.317Z,68.41
2023-08-09T21:14:38.494Z,68.89
2023-08-09T21:17:06.500Z,68.93
2023-08-09T21:19:35.350Z,69.26
2023-08-09T21:22:04.021Z,69.36
2023-08-09T21:24:31.966Z,69.32
2023-08-09T21:26:59.712Z,69.58
2023-08-09T21:29:32.098Z,69.82
2023-08-09T21:32:01.593Z,71.30
2023-08-09T21:34:29.355Z,69.55
2023-08-09T21:36:57.234Z,69.94
2023-08-09T21:39:25.144Z,69.83
2023-08-09T21:41:52.913Z,69.86
2023-08-09T21:44:21.063Z,70.58
2023-08-09T21:46:48.861Z,70.18
2023-08-09T21:49:18.016Z,70.37
2023-08-09T21:51:48.373Z,71.04
2023-08-09T21:54:16.402Z,71.21
2023-08-09T21:56:44.176Z,71.36
2023-08-09T21:59:11.916Z,70.91
2023-08-09T22:01:40.233Z,71.58
2023-08-09T22:04:08.181Z,71.19
2023-08-09T22:06:37.423Z,71.43
2023-08-09T22:09:06.304Z,72.28
2023-08-09T22:11:34.207Z,71.82
2023-08-09T22:14:02.077Z,72.50
2023-08-09T22:16:29.912Z,72.16
2023-08-09T22:18:57.696Z,72.69
2023-08-09T22:21:25.515Z,72.72
2023-08-09T22:23:55.646Z,72.24
2023-08-09T22:26:23.602Z,72.67
2023-08-09T22:28:51.365Z,72.95
2023-08-09T22:31:19.157Z,72.96
2023-08-09T22:33:47.053Z,73.22
2023-08-09T22:36:14.988Z,72.91
2023-08-09T22:38:42.819Z,73.84
2023-08-09T22:41:12.092Z,73.65
2023-08-09T22:43:39.906Z,73.77
2023-08-09T22:46:07.880Z,74.00
2023-08-09T22:48:35.786Z,73.76
2023-08-09T22:51:05.367Z,74.16
2023-08-09T22:53:33.174Z,74.33
2023-08-09T22:56:01.054Z,74.06
2023-08-09T22:58:30.485Z,74.20
2023-08-09T23:01:01.258Z,74.25
2023-08-09T23:03:29.283Z,74.05
2023-08-09T23:05:57.176Z,74.10
2023-08-09T23:08:25.486Z,74.45
2023-08-09T23:10:55.099Z,74.71
2023-08-09T23:13:22.917Z,74.18
2023-08-09T23:15:54.871Z,74.57
2023-08-09T23:18:22.935Z,74.80
2023-08-09T23:20:51.704Z,74.69
2023-08-09T23:23:19.473Z,74.82
2023-08-09T23:25:47.381Z,74.53
2023-08-09T23:28:15.394Z,74.33
2023-08-09T23:30:43.145Z,74.85
2023-08-09T23:33:14.505Z,74.92
2023-08-09T23:35:42.322Z,75.08
2023-08-09T23:38:11.785Z,74.64
2023-08-09T23:40:40.090Z,74.83
2023-08-09T23:43:07.873Z,74.48
2023-08-09T23:45:35.676Z,75.19
2023-08-09T23:48:04.127Z,74.49
2023-08-09T23:50:33.519Z,74.50
2023-08-09T23:53:01.298Z,74.78
2023-08-09T23:55:29.138Z,74.97
2023-08-09T23:57:59.390Z,75.70
